createdAt,value
2018-10-16T00:02:02.917Z,13.20
2018-10-16T00:04:31.460Z,14.93
2018-10-16T00:07:00.163Z,14.00
2018-10-16T00:09:28.709Z,14.27
2018-10-16T00:12:02.435Z,15.17
2018-10-16T00:14:31.392Z,15.03
2018-10-16T00:17:01.345Z,16.77
2018-10-16T00:19:29.888Z,15.73
2018-10-16T00:21:59.013Z,14.63
2018-10-16T00:24:27.530Z,15.70
2018-10-16T00:26:56.046Z,19.47
2018-10-16T00:29:24.564Z,18.67
2018-10-16T00:31:53.056Z,15.57
2018-10-16T00:34:21.585Z,15.83
2018-10-16T00:36:50.129Z,20.80
2018-10-16T00:39:18.653Z,16.17
2018-10-16T00:41:53.272Z,17.47
2018-10-16T00:44:21.933Z,16.23
2018-10-16T00:46:50.582Z,14.17
2018-10-16T00:49:19.134Z,14.57
2018-10-16T00:51:47.690Z,14.83
2018-10-16T00:54:16.201Z,15.17
2018-10-16T00:56:44.734Z,15.40
2018-10-16T00:59:13.227Z,16.20
2018-10-16T01:01:41.848Z,15.00
2018-10-16T01:04:10.359Z,14.57
2018-10-16T01:06:39.191Z,14.47
2018-10-16T01:09:09.728Z,14.83
2018-10-16T01:11:38.768Z,15.37
2018-10-16T01:14:07.308Z,14.07
2018-10-16T01:16:35.827Z,14.30
2018-10-16T01:19:04.365Z,15.97
2018-10-16T01:21:32.899Z,15.80
2018-10-16T01:24:01.398Z,16.60
2018-10-16T01:26:29.929Z,16.07
2018-10-16T01:28:58.460Z,15.20
2018-10-16T01:31:27.114Z,15.87
2018-10-16T01:33:55.643Z,15.77
2018-10-16T01:36:24.189Z,15.63
2018-10-16T01:38:52.744Z,15.03
2018-10-16T01:41:21.275Z,16.00
2018-10-16T01:43:49.778Z,15.73
2018-10-16T01:46:18.285Z,15.27
2018-10-16T01:48:47.500Z,16.87
2018-10-16T01:51:16.720Z,17.60
2018-10-16T01:53:45.308Z,15.63
2018-10-16T01:56:13.810Z,17.50
2018-10-16T01:58:42.304Z,17.27
2018-10-16T02:01:10.827Z,18.97
2018-10-16T02:03:39.370Z,18.23
2018-10-16T02:06:07.884Z,18.57
2018-10-16T02:08:36.437Z,18.83
2018-10-16T02:11:05.151Z,18.13
2018-10-16T02:13:33.702Z,20.33
2018-10-16T02:16:02.324Z,20.63
2018-10-16T02:18:30.837Z,21.17
2018-10-16T02:20:59.387Z,21.77
2018-10-16T02:23:27.927Z,22.53
2018-10-16T02:25:56.452Z,23.90
2018-10-16T02:28:24.981Z,22.67
2018-10-16T02:30:53.480Z,22.00
2018-10-16T02:33:22.015Z,21.70
2018-10-16T02:35:50.587Z,20.93
2018-10-16T02:38:19.112Z,19.87
2018-10-16T02:40:47.639Z,22.00
2018-10-16T02:43:16.177Z,21.37
2018-10-16T02:45:44.860Z,21.30
2018-10-16T02:48:13.363Z,18.73
2018-10-16T02:50:41.959Z,19.10
2018-10-16T02:53:10.548Z,18.03
2018-10-16T02:55:39.069Z,20.20
2018-10-16T02:58:07.527Z,19.70
2018-10-16T03:00:36.053Z,19.23
2018-10-16T03:03:04.678Z,19.67
2018-10-16T03:05:33.195Z,19.37
2018-10-16T03:08:01.765Z,18.80
2018-10-16T03:10:30.363Z,19.00
2018-10-16T03:12:58.960Z,17.10
2018-10-16T03:15:27.469Z,17.97
2018-10-16T03:17:56.027Z,18.87
2018-10-16T03:20:24.561Z,18.60
2018-10-16T03:22:53.106Z,18.90
2018-10-16T03:25:21.617Z,21.83
2018-10-16T03:27:50.136Z,20.60
2018-10-16T03:30:18.706Z,20.10
2018-10-16T03:32:47.268Z,21.17
2018-10-16T03:35:15.797Z,20.40
2018-10-16T03:37:44.505Z,22.83
2018-10-16T03:40:13.419Z,23.43
2018-10-16T03:42:42.674Z,21.80
2018-10-16T03:45:12.421Z,23.83
2018-10-16T03:47:41.482Z,24.17
2018-10-16T03:50:10.614Z,20.47
2018-10-16T03:52:39.131Z,20.33
2018-10-16T03:55:08.117Z,20.70
2018-10-16T03:57:36.944Z,20.80
2018-10-16T04:00:06.266Z,20.87
2018-10-16T04:02:34.822Z,21.23
2018-10-16T04:05:03.378Z,21.27
2018-10-16T04:07:32.122Z,22.57
2018-10-16T04:10:00.805Z,23.20
2018-10-16T04:12:29.331Z,23.97
2018-10-16T04:14:57.878Z,23.63
2018-10-16T04:17:26.673Z,23.67
2018-10-16T04:19:55.207Z,22.37
2018-10-16T04:22:23.834Z,21.57
2018-10-16T04:24:52.308Z,21.57
2018-10-16T04:27:20.851Z,22.10
2018-10-16T04:29:49.347Z,22.20
2018-10-16T04:32:17.857Z,22.00
2018-10-16T04:34:46.387Z,22.50
2018-10-16T04:37:14.886Z,22.53
2018-10-16T04:39:43.423Z,23.30
2018-10-16T04:42:11.974Z,24.63
2018-10-16T04:44:40.496Z,28.50
2018-10-16T04:47:09.013Z,31.33
2018-10-16T04:49:37.536Z,28.10
2018-10-16T04:52:06.108Z,25.23
2018-10-16T04:54:34.660Z,25.30
2018-10-16T04:57:03.180Z,26.03
2018-10-16T04:59:31.716Z,25.27
2018-10-16T05:02:00.248Z,25.07
2018-10-16T05:04:28.774Z,25.47
2018-10-16T05:06:57.283Z,25.40
2018-10-16T05:09:25.821Z,23.77
2018-10-16T05:11:55.524Z,23.30
2018-10-16T05:14:24.018Z,24.43
2018-10-16T05:16:52.671Z,23.90
2018-10-16T05:19:21.395Z,27.77
2018-10-16T05:21:49.927Z,25.83
2018-10-16T05:24:19.103Z,26.57
2018-10-16T05:26:47.625Z,26.00
2018-10-16T05:29:16.180Z,25.53
2018-10-16T05:31:44.789Z,24.97
2018-10-16T05:34:13.334Z,25.30
2018-10-16T05:36:41.836Z,26.80
2018-10-16T05:39:12.075Z,27.53
2018-10-16T05:41:40.720Z,25.90
2018-10-16T05:44:09.672Z,25.10
2018-10-16T05:46:38.355Z,24.63
2018-10-16T05:49:07.195Z,27.00
2018-10-16T05:51:35.737Z,23.67
2018-10-16T05:54:04.308Z,23.77
2018-10-16T05:56:32.821Z,23.87
2018-10-16T05:59:01.359Z,24.17
2018-10-16T06:01:29.861Z,21.20
2018-10-16T06:03:58.387Z,20.67
2018-10-16T06:06:26.897Z,21.37
2018-10-16T06:08:56.227Z,21.47
2018-10-16T06:11:24.724Z,19.60
2018-10-16T06:13:53.329Z,19.40
2018-10-16T06:16:21.982Z,19.07
2018-10-16T06:18:50.501Z,19.27
2018-10-16T06:21:19.453Z,19.53
2018-10-16T06:23:47.968Z,20.27
2018-10-16T06:26:16.491Z,20.63
2018-10-16T06:28:45.006Z,18.50
2018-10-16T06:31:13.527Z,18.23
2018-10-16T06:33:42.111Z,19.80
2018-10-16T06:36:10.591Z,19.67
2018-10-16T06:38:39.104Z,25.67
2018-10-16T06:41:07.756Z,30.47
2018-10-16T06:43:36.166Z,28.77
2018-10-16T06:46:05.128Z,22.63
2018-10-16T06:48:33.857Z,18.43
2018-10-16T06:51:02.199Z,18.77
2018-10-16T06:53:30.700Z,18.13
2018-10-16T06:55:59.496Z,19.10
2018-10-16T06:58:28.364Z,19.10
2018-10-16T07:00:56.960Z,18.93
2018-10-16T07:03:25.454Z,19.83
2018-10-16T07:05:53.981Z,18.80
2018-10-16T07:08:22.472Z,19.40
2018-10-16T07:10:51.041Z,19.60
2018-10-16T07:13:19.537Z,18.63
2018-10-16T07:15:48.061Z,18.73
2018-10-16T07:18:16.637Z,20.30
2018-10-16T07:20:45.165Z,19.73
2018-10-16T07:23:13.738Z,20.70
2018-10-16T07:25:42.258Z,21.67
2018-10-16T07:28:10.767Z,22.27
2018-10-16T07:30:39.309Z,22.60
2018-10-16T07:33:07.814Z,21.87
2018-10-16T07:35:36.362Z,21.13
2018-10-16T07:38:05.226Z,20.33
2018-10-16T07:40:33.586Z,20.87
2018-10-16T07:43:02.102Z,20.60
2018-10-16T07:45:30.619Z,20.30
2018-10-16T07:47:59.164Z,20.70
2018-10-16T07:50:27.743Z,20.50
2018-10-16T07:52:56.275Z,20.67
2018-10-16T07:55:24.877Z,19.30
2018-10-16T08:00:18.869Z,19.30
2018-10-16T08:02:47.424Z,17.97
2018-10-16T08:05:16.469Z,18.50
2018-10-16T08:07:45.046Z,18.30
2018-10-16T08:10:14.459Z,17.80
2018-10-16T08:12:43.634Z,18.17
2018-10-16T08:15:12.700Z,17.90
2018-10-16T08:17:41.699Z,17.87
2018-10-16T08:20:10.250Z,18.60
2018-10-16T08:22:38.969Z,18.07
2018-10-16T08:25:07.705Z,17.07
2018-10-16T08:27:36.617Z,17.20
2018-10-16T08:30:07.133Z,16.53
2018-10-16T08:32:35.721Z,17.00
2018-10-16T08:35:04.348Z,17.60
2018-10-16T08:39:43.389Z,17.83
2018-10-16T08:42:37.026Z,17.73
2018-10-16T08:45:17.510Z,17.20
2018-10-16T08:47:58.377Z,17.23
2018-10-16T08:50:39.655Z,17.40
2018-10-16T08:53:08.153Z,17.43
2018-10-16T08:55:37.169Z,17.13
2018-10-16T08:58:06.349Z,16.40
2018-10-16T09:00:36.025Z,16.93
2018-10-16T09:03:04.670Z,17.27
2018-10-16T09:05:33.201Z,17.90
2018-10-16T09:08:01.832Z,17.87
2018-10-16T09:10:31.037Z,19.63
2018-10-16T09:12:59.979Z,16.43
2018-10-16T09:15:28.516Z,18.50
2018-10-16T09:17:57.075Z,16.77
2018-10-16T09:20:25.632Z,19.70
2018-10-16T09:22:54.164Z,17.17
2018-10-16T09:25:22.683Z,18.97
2018-10-16T09:27:51.216Z,18.50
2018-10-16T09:30:19.715Z,18.87
2018-10-16T09:32:48.266Z,17.73
2018-10-16T09:35:16.777Z,19.27
2018-10-16T09:37:45.384Z,17.67
2018-10-16T09:40:13.829Z,18.80
2018-10-16T09:42:42.370Z,18.20
2018-10-16T09:45:11.663Z,18.63
2018-10-16T09:47:40.289Z,19.60
2018-10-16T09:50:09.960Z,19.50
2018-10-16T09:52:38.540Z,18.70
2018-10-16T09:55:08.569Z,19.43
2018-10-16T09:57:37.380Z,18.70
2018-10-16T10:00:08.879Z,18.73
2018-10-16T10:02:37.411Z,18.93
2018-10-16T10:05:06.082Z,19.07
2018-10-16T10:07:35.184Z,19.43
2018-10-16T10:10:03.697Z,19.57
2018-10-16T10:12:32.215Z,19.33
2018-10-16T10:15:00.810Z,20.33
2018-10-16T10:17:29.842Z,18.63
2018-10-16T10:19:58.336Z,20.40
2018-10-16T10:22:26.864Z,19.57
2018-10-16T10:24:55.377Z,19.80
2018-10-16T10:27:23.912Z,18.40
2018-10-16T10:29:52.456Z,16.47
2018-10-16T10:32:20.972Z,15.93
2018-10-16T10:34:49.468Z,14.93
2018-10-16T10:37:18.014Z,14.83
2018-10-16T10:39:46.552Z,16.53
2018-10-16T10:42:15.148Z,14.87
2018-10-16T10:44:43.644Z,15.00
2018-10-16T10:47:12.181Z,16.27
2018-10-16T10:49:40.677Z,14.50
2018-10-16T10:52:09.287Z,16.07
2018-10-16T10:54:37.803Z,15.23
2018-10-16T10:57:06.984Z,14.70
2018-10-16T10:59:35.433Z,12.30
2018-10-16T11:02:04.643Z,13.33
2018-10-16T11:04:33.187Z,14.90
2018-10-16T11:07:01.735Z,13.00
2018-10-16T11:09:30.277Z,12.70
2018-10-16T11:11:59.094Z,13.60
2018-10-16T11:14:28.420Z,10.75
2018-10-16T11:16:56.928Z,9.90
2018-10-16T11:19:25.484Z,11.40
2018-10-16T11:21:54.035Z,10.72
2018-10-16T11:24:22.601Z,11.60
2018-10-16T11:26:51.335Z,10.28
2018-10-16T11:29:20.042Z,11.50
2018-10-16T11:31:48.564Z,10.85
2018-10-16T11:34:17.106Z,10.32
2018-10-16T11:36:45.736Z,11.28
2018-10-16T11:39:14.355Z,11.45
2018-10-16T11:41:42.834Z,10.90
2018-10-16T11:44:12.545Z,10.30
2018-10-16T11:46:42.031Z,10.13
2018-10-16T11:49:11.517Z,9.43
2018-10-16T11:51:41.862Z,10.80
2018-10-16T11:54:11.270Z,9.80
2018-10-16T11:56:40.667Z,10.68
2018-10-16T11:59:09.992Z,11.83
2018-10-16T12:01:39.545Z,10.68
2018-10-16T12:04:09.120Z,11.20
2018-10-16T12:06:38.459Z,11.18
2018-10-16T12:09:09.968Z,12.20
2018-10-16T12:11:40.637Z,11.10
2018-10-16T12:14:11.039Z,12.13
2018-10-16T12:16:47.348Z,13.68
2018-10-16T12:19:22.547Z,13.90
2018-10-16T12:21:52.959Z,14.20
2018-10-16T12:24:22.173Z,12.83
2018-10-16T12:26:51.334Z,13.87
2018-10-16T12:29:21.598Z,12.53
2018-10-16T12:31:51.572Z,11.63
2018-10-16T12:34:21.813Z,10.85
2018-10-16T12:36:52.102Z,10.80
2018-10-16T12:39:22.129Z,11.45
2018-10-16T12:41:52.688Z,11.70
2018-10-16T12:44:22.428Z,13.22
2018-10-16T12:46:52.400Z,12.63
2018-10-16T12:49:22.827Z,11.68
2018-10-16T12:51:53.379Z,11.40
2018-10-16T12:54:23.633Z,10.00
2018-10-16T12:56:53.896Z,13.15
2018-10-16T12:59:24.009Z,10.98
2018-10-16T13:01:53.798Z,12.00
2018-10-16T13:04:24.134Z,11.22
2018-10-16T13:06:54.405Z,10.23
2018-10-16T13:09:24.541Z,10.25
2018-10-16T13:11:54.603Z,12.40
2018-10-16T13:14:25.000Z,12.05
2018-10-16T13:16:55.522Z,10.85
2018-10-16T13:19:26.049Z,10.30
2018-10-16T13:21:56.324Z,11.35
2018-10-16T13:24:25.925Z,11.40
2018-10-16T13:26:55.882Z,11.45
2018-10-16T13:29:26.257Z,11.70
2018-10-16T13:31:55.869Z,10.82
2018-10-16T13:34:25.607Z,12.13
2018-10-16T13:36:55.494Z,10.55
2018-10-16T13:39:25.100Z,10.28
2018-10-16T13:41:54.623Z,10.80
2018-10-16T13:44:23.803Z,12.95
2018-10-16T13:46:53.046Z,12.07
2018-10-16T13:49:22.854Z,11.93
2018-10-16T13:51:52.720Z,11.75
2018-10-16T13:54:22.277Z,11.25
2018-10-16T13:56:51.537Z,12.18
2018-10-16T13:59:20.934Z,12.05
2018-10-16T14:01:50.228Z,11.48
2018-10-16T14:04:19.007Z,10.68
2018-10-16T14:06:47.587Z,12.37
2018-10-16T14:09:16.148Z,11.00
2018-10-16T14:11:45.770Z,9.65
2018-10-16T14:14:14.540Z,10.23
2018-10-16T14:16:43.262Z,10.60
2018-10-16T14:19:11.726Z,9.83
2018-10-16T14:21:40.419Z,9.83
2018-10-16T14:24:08.938Z,9.85
2018-10-16T14:26:37.509Z,10.60
2018-10-16T14:29:06.357Z,8.25
2018-10-16T14:31:34.885Z,10.13
2018-10-16T14:34:03.555Z,8.30
2018-10-16T14:36:32.083Z,7.40
2018-10-16T14:39:00.582Z,7.60
2018-10-16T14:41:29.136Z,8.00
2018-10-16T14:43:57.654Z,8.53
2018-10-16T14:46:26.500Z,8.93
2018-10-16T14:48:55.046Z,8.50
2018-10-16T14:51:23.750Z,7.45
2018-10-16T14:53:52.349Z,8.08
2018-10-16T14:56:20.866Z,7.60
2018-10-16T14:58:49.365Z,8.85
2018-10-16T15:01:17.922Z,8.15
2018-10-16T15:03:46.541Z,7.62
2018-10-16T15:06:15.044Z,9.20
2018-10-16T15:08:43.595Z,8.18
2018-10-16T15:11:12.187Z,7.60
2018-10-16T15:13:41.056Z,7.53
2018-10-16T15:16:09.917Z,9.15
2018-10-16T15:18:38.819Z,8.85
2018-10-16T15:21:07.804Z,9.45
2018-10-16T15:23:36.331Z,9.63
2018-10-16T15:26:05.627Z,9.35
2018-10-16T15:28:34.151Z,9.88
2018-10-16T15:31:02.704Z,9.90
2018-10-16T15:33:31.260Z,10.50
2018-10-16T15:36:00.156Z,11.80
2018-10-16T15:38:29.060Z,12.83
2018-10-16T15:40:57.606Z,11.03
2018-10-16T15:43:26.134Z,11.80
2018-10-16T15:45:54.699Z,11.63
2018-10-16T15:48:23.234Z,11.43
2018-10-16T15:50:51.844Z,11.47
2018-10-16T15:53:20.330Z,12.10
2018-10-16T15:55:48.934Z,12.73
2018-10-16T15:58:17.593Z,12.90
2018-10-16T16:00:46.045Z,11.73
2018-10-16T16:03:14.580Z,12.57
2018-10-16T16:05:43.088Z,12.47
2018-10-16T16:08:11.688Z,13.23
2018-10-16T16:10:40.134Z,12.87
2018-10-16T16:13:10.209Z,12.00
2018-10-16T16:15:39.165Z,12.37
2018-10-16T16:18:07.815Z,12.60
2018-10-16T16:20:36.320Z,12.20
2018-10-16T16:23:04.953Z,12.20
2018-10-16T16:25:33.548Z,12.53
2018-10-16T16:28:02.143Z,14.90
2018-10-16T16:30:30.608Z,14.10
2018-10-16T16:32:59.236Z,14.40
2018-10-16T16:35:27.761Z,14.60
2018-10-16T16:37:56.344Z,13.20
2018-10-16T16:40:24.832Z,13.83
2018-10-16T16:42:53.380Z,13.40
2018-10-16T16:45:21.872Z,14.00
2018-10-16T16:47:50.412Z,13.97
2018-10-16T16:50:18.916Z,12.70
2018-10-16T16:52:47.445Z,14.67
2018-10-16T16:55:16.580Z,15.47
2018-10-16T16:57:45.163Z,15.10
2018-10-16T17:00:14.680Z,15.90
2018-10-16T17:02:44.597Z,14.67
2018-10-16T17:05:13.813Z,15.53
2018-10-16T17:07:42.923Z,16.40
2018-10-16T17:10:11.684Z,16.17
2018-10-16T17:12:40.891Z,16.40
2018-10-16T17:15:12.096Z,15.77
2018-10-16T17:17:40.624Z,15.90
2018-10-16T17:20:10.236Z,18.67
2018-10-16T17:22:39.251Z,15.53
2018-10-16T17:25:09.717Z,16.70
2018-10-16T17:27:38.216Z,36.57
2018-10-16T17:30:10.198Z,18.17
2018-10-16T17:32:38.945Z,16.90
2018-10-16T17:35:08.471Z,17.50
2018-10-16T17:37:36.996Z,16.87
2018-10-16T17:40:06.854Z,17.13
2018-10-16T17:42:35.381Z,17.40
2018-10-16T17:45:04.014Z,18.97
2018-10-16T17:47:32.540Z,15.87
2018-10-16T17:50:01.103Z,16.20
2018-10-16T17:52:29.628Z,17.80
2018-10-16T17:54:58.151Z,16.50
2018-10-16T17:57:26.729Z,17.80
2018-10-16T17:59:55.287Z,16.77
2018-10-16T18:02:23.817Z,16.67
2018-10-16T18:04:52.371Z,16.77
2018-10-16T18:07:20.906Z,18.33
2018-10-16T18:09:49.431Z,16.13
2018-10-16T18:12:17.998Z,18.90
2018-10-16T18:14:46.517Z,18.13
2018-10-16T18:17:15.008Z,17.10
2018-10-16T18:19:43.557Z,17.87
2018-10-16T18:22:12.060Z,18.43
2018-10-16T18:24:40.658Z,17.50
2018-10-16T18:27:09.172Z,16.80
2018-10-16T18:29:37.746Z,18.93
2018-10-16T18:32:06.792Z,18.23
2018-10-16T18:34:35.327Z,17.93
2018-10-16T18:37:03.860Z,17.50
2018-10-16T18:39:32.448Z,17.33
2018-10-16T18:42:01.118Z,17.90
2018-10-16T18:44:29.688Z,18.90
2018-10-16T18:46:58.197Z,18.70
2018-10-16T18:49:26.771Z,19.30
2018-10-16T18:51:55.337Z,19.13
2018-10-16T18:54:24.898Z,17.83
2018-10-16T18:56:53.461Z,20.00
2018-10-16T18:59:22.023Z,19.77
2018-10-16T19:01:50.701Z,20.33
2018-10-16T19:04:19.240Z,20.47
2018-10-16T19:06:47.828Z,21.53
2018-10-16T19:09:16.428Z,20.90
2018-10-16T19:11:45.058Z,21.03
2018-10-16T19:14:13.596Z,21.37
2018-10-16T19:16:42.144Z,20.87
2018-10-16T19:19:10.641Z,20.27
2018-10-16T19:21:39.304Z,22.70
2018-10-16T19:24:08.261Z,24.17
2018-10-16T19:26:36.831Z,21.00
2018-10-16T19:29:05.529Z,21.03
2018-10-16T19:31:34.091Z,21.33
2018-10-16T19:34:02.617Z,20.67
2018-10-16T19:36:31.288Z,21.83
2018-10-16T19:38:59.853Z,23.77
2018-10-16T19:41:28.446Z,25.10
2018-10-16T19:43:57.018Z,24.87
2018-10-16T19:46:26.501Z,24.20
2018-10-16T19:48:55.058Z,22.87
2018-10-16T19:51:23.573Z,23.97
2018-10-16T19:53:52.128Z,24.50
2018-10-16T19:56:20.631Z,25.17
2018-10-16T19:58:49.155Z,28.77
2018-10-16T20:01:17.697Z,30.93
2018-10-16T20:03:46.204Z,29.27
2018-10-16T20:06:14.743Z,25.40
2018-10-16T20:08:43.349Z,28.17
2018-10-16T20:11:12.867Z,27.50
2018-10-16T20:13:43.310Z,26.30
2018-10-16T20:16:12.470Z,24.10
2018-10-16T20:18:41.218Z,23.43
2018-10-16T20:21:10.398Z,24.53
2018-10-16T20:23:40.183Z,28.13
2018-10-16T20:26:09.907Z,25.47
2018-10-16T20:28:38.421Z,22.70
2018-10-16T20:31:07.023Z,24.53
2018-10-16T20:33:36.287Z,23.97
2018-10-16T20:36:04.992Z,24.07
2018-10-16T20:38:33.519Z,29.77
2018-10-16T20:41:02.078Z,30.77
2018-10-16T20:43:31.259Z,30.67
2018-10-16T20:45:59.979Z,32.50
2018-10-16T20:48:28.533Z,32.53
2018-10-16T20:50:57.064Z,28.07
2018-10-16T20:53:25.627Z,28.63
2018-10-16T20:55:54.196Z,29.10
2018-10-16T20:58:22.791Z,27.30
2018-10-16T21:00:52.144Z,28.07
2018-10-16T21:03:20.888Z,28.40
2018-10-16T21:05:49.642Z,27.00
2018-10-16T21:08:18.046Z,27.23
2018-10-16T21:10:46.578Z,25.77
2018-10-16T21:13:15.162Z,23.30
2018-10-16T21:15:43.698Z,22.10
2018-10-16T21:18:12.533Z,23.60
2018-10-16T21:20:41.045Z,22.07
2018-10-16T21:23:09.655Z,22.23
2018-10-16T21:25:38.156Z,22.53
2018-10-16T21:28:06.861Z,23.77
2018-10-16T21:30:35.383Z,20.90
2018-10-16T21:33:03.992Z,19.87
2018-10-16T21:35:33.203Z,23.73
2018-10-16T21:38:01.741Z,23.10
2018-10-16T21:40:30.241Z,24.67
2018-10-16T21:42:59.070Z,25.43
2018-10-16T21:45:27.646Z,26.10
2018-10-16T21:47:56.203Z,24.13
2018-10-16T21:50:24.721Z,24.33
2018-10-16T21:52:53.334Z,28.50
2018-10-16T21:55:21.848Z,27.67
2018-10-16T21:57:50.358Z,30.90
2018-10-16T22:00:24.365Z,26.80
2018-10-16T22:02:52.886Z,27.80
2018-10-16T22:05:25.207Z,30.07
2018-10-16T22:07:55.984Z,27.37
2018-10-16T22:10:24.858Z,26.77
2018-10-16T22:12:53.387Z,26.77
2018-10-16T22:15:22.109Z,27.60
2018-10-16T22:17:50.926Z,23.30
2018-10-16T22:20:19.552Z,26.30
2018-10-16T22:22:48.189Z,28.77
2018-10-16T22:25:16.972Z,30.73
2018-10-16T22:27:45.438Z,26.23
2018-10-16T22:30:14.051Z,21.67
2018-10-16T22:32:42.590Z,21.53
2018-10-16T22:35:11.824Z,20.20
2018-10-16T22:37:40.329Z,21.10
2018-10-16T22:40:09.875Z,21.07
2018-10-16T22:42:38.405Z,20.03
2018-10-16T22:45:07.944Z,21.10
2018-10-16T22:47:36.548Z,20.00
2018-10-16T22:50:07.623Z,23.23
2018-10-16T22:52:36.151Z,23.33
2018-10-16T22:55:05.535Z,25.00
2018-10-16T22:57:34.056Z,24.00
2018-10-16T23:00:02.590Z,23.87
2018-10-16T23:02:31.126Z,21.93
2018-10-16T23:04:59.673Z,21.87
2018-10-16T23:07:28.189Z,21.50
2018-10-16T23:09:56.696Z,22.80
2018-10-16T23:12:25.233Z,22.47
2018-10-16T23:14:53.865Z,19.80
2018-10-16T23:17:22.395Z,20.43
2018-10-16T23:19:50.926Z,21.67
2018-10-16T23:22:19.425Z,21.00
2018-10-16T23:24:47.972Z,20.87
2018-10-16T23:27:16.522Z,20.63
2018-10-16T23:29:45.061Z,20.17
2018-10-16T23:32:13.562Z,22.43
2018-10-16T23:34:42.058Z,21.60
2018-10-16T23:37:10.679Z,22.03
2018-10-16T23:39:39.236Z,23.00
2018-10-16T23:42:07.752Z,23.70
2018-10-16T23:44:36.282Z,25.40
2018-10-16T23:47:04.845Z,26.33
2018-10-16T23:49:33.375Z,21.93
2018-10-16T23:52:01.873Z,22.90
2018-10-16T23:54:30.424Z,25.83
2018-10-16T23:56:58.946Z,26.73
2018-10-16T23:59:27.555Z,25.73
